createdAt,value
2017-10-23T00:01:19.573Z,8.38
2017-10-23T00:03:46.409Z,8.25
2017-10-23T00:06:12.496Z,11.02
2017-10-23T00:08:38.620Z,10.55
2017-10-23T00:11:04.718Z,9.70
2017-10-23T00:13:31.548Z,7.35
2017-10-23T00:15:57.673Z,9.05
2017-10-23T00:18:23.790Z,7.28
2017-10-23T00:20:49.887Z,10.45
2017-10-23T00:23:15.985Z,6.15
2017-10-23T00:25:42.880Z,8.60
2017-10-23T00:28:08.980Z,8.98
2017-10-23T00:30:35.103Z,10.15
2017-10-23T00:33:01.205Z,7.57
2017-10-23T00:35:27.311Z,10.38
2017-10-23T00:37:53.420Z,8.95
2017-10-23T00:40:19.532Z,8.63
2017-10-23T00:42:46.393Z,7.43
2017-10-23T00:45:12.505Z,8.57
2017-10-23T00:47:38.620Z,10.80
2017-10-23T00:50:04.752Z,5.28
2017-10-23T00:52:30.889Z,8.75
2017-10-23T00:54:57.025Z,11.05
2017-10-23T00:57:23.153Z,9.43
2017-10-23T00:59:49.283Z,11.27
2017-10-23T01:02:15.400Z,8.10
2017-10-23T01:04:41.516Z,9.40
2017-10-23T01:07:07.613Z,9.95
2017-10-23T01:09:33.713Z,9.55
2017-10-23T01:11:59.822Z,7.87
2017-10-23T01:14:25.980Z,6.53
2017-10-23T01:16:52.095Z,7.72
2017-10-23T01:19:18.973Z,8.70
2017-10-23T01:21:45.112Z,5.97
2017-10-23T01:24:11.201Z,7.07
2017-10-23T01:26:37.301Z,9.00
2017-10-23T01:29:03.394Z,19.80
2017-10-23T01:31:29.512Z,9.95
2017-10-23T01:33:55.638Z,15.10
2017-10-23T01:36:21.764Z,11.93
2017-10-23T01:38:48.630Z,12.48
2017-10-23T01:41:14.739Z,8.88
2017-10-23T01:43:40.837Z,7.70
2017-10-23T01:46:06.945Z,7.65
2017-10-23T01:48:33.054Z,5.18
2017-10-23T01:50:59.136Z,8.77
2017-10-23T01:53:25.374Z,7.15
2017-10-23T01:55:51.474Z,12.20
2017-10-23T01:58:17.572Z,6.70
2017-10-23T02:00:43.701Z,10.43
2017-10-23T02:03:09.812Z,8.95
2017-10-23T02:05:35.916Z,8.27
2017-10-23T02:08:02.033Z,5.20
2017-10-23T02:10:28.885Z,11.18
2017-10-23T02:12:55.763Z,12.20
2017-10-23T02:15:21.995Z,10.88
2017-10-23T02:17:48.853Z,7.90
2017-10-23T02:20:14.956Z,10.88
2017-10-23T02:22:41.041Z,7.95
2017-10-23T02:25:07.141Z,9.57
2017-10-23T02:27:33.225Z,8.18
2017-10-23T02:29:59.329Z,11.25
2017-10-23T02:32:26.160Z,11.00
2017-10-23T02:34:52.322Z,13.93
2017-10-23T02:37:19.154Z,9.15
2017-10-23T02:39:46.002Z,7.95
2017-10-23T02:42:12.105Z,10.00
2017-10-23T02:44:38.213Z,9.32
2017-10-23T02:47:04.450Z,9.50
2017-10-23T02:49:30.561Z,8.45
2017-10-23T02:51:57.435Z,8.23
2017-10-23T02:54:24.286Z,12.93
2017-10-23T02:56:51.113Z,12.95
2017-10-23T02:59:17.221Z,10.68
2017-10-23T03:01:43.357Z,15.40
2017-10-23T03:04:09.506Z,14.73
2017-10-23T03:06:35.613Z,22.15
2017-10-23T03:09:01.748Z,7.70
2017-10-23T03:11:28.598Z,15.50
2017-10-23T03:13:54.760Z,5.70
2017-10-23T03:16:20.890Z,9.27
2017-10-23T03:18:47.196Z,12.88
2017-10-23T03:21:13.555Z,8.25
2017-10-23T03:23:39.884Z,15.70
2017-10-23T03:26:06.189Z,6.25
2017-10-23T03:28:32.513Z,8.02
2017-10-23T03:30:58.822Z,7.15
2017-10-23T03:33:25.152Z,6.15
2017-10-23T03:35:51.460Z,10.38
2017-10-23T03:38:17.901Z,11.05
2017-10-23T03:40:44.233Z,6.50
2017-10-23T03:43:10.539Z,9.00
2017-10-23T03:45:36.892Z,20.00
2017-10-23T03:48:03.324Z,11.63
2017-10-23T03:50:29.637Z,5.45
2017-10-23T03:52:56.097Z,7.85
2017-10-23T03:55:23.157Z,5.95
2017-10-23T03:57:49.581Z,13.32
2017-10-23T04:00:16.662Z,6.55
2017-10-23T04:02:43.509Z,8.85
2017-10-23T04:05:10.592Z,7.53
2017-10-23T04:07:36.712Z,8.52
2017-10-23T04:10:03.833Z,10.57
2017-10-23T04:12:30.169Z,8.90
2017-10-23T04:14:56.517Z,8.55
2017-10-23T04:17:22.892Z,6.70
2017-10-23T04:20:09.645Z,9.15
2017-10-23T04:22:35.999Z,9.35
2017-10-23T04:25:02.302Z,10.65
2017-10-23T04:27:28.588Z,10.13
2017-10-23T04:29:54.897Z,9.20
2017-10-23T04:32:22.147Z,11.07
2017-10-23T04:34:49.204Z,12.40
2017-10-23T04:37:15.687Z,10.38
2017-10-23T04:39:41.984Z,6.43
2017-10-23T04:42:08.401Z,5.62
2017-10-23T04:44:34.741Z,11.88
2017-10-23T04:47:01.056Z,6.57
2017-10-23T04:49:27.407Z,5.45
2017-10-23T04:51:53.799Z,8.52
2017-10-23T04:54:20.086Z,8.73
2017-10-23T04:56:46.431Z,7.65
2017-10-23T04:59:12.796Z,10.38
2017-10-23T05:01:39.126Z,7.78
2017-10-23T05:04:05.444Z,6.40
2017-10-23T05:06:31.964Z,5.62
2017-10-23T05:08:59.125Z,8.63
2017-10-23T05:11:26.197Z,7.32
2017-10-23T05:13:52.525Z,5.03
2017-10-23T05:16:18.824Z,7.97
2017-10-23T05:18:45.137Z,11.70
2017-10-23T05:21:12.255Z,13.90
2017-10-23T05:23:38.647Z,9.77
2017-10-23T05:26:04.976Z,8.05
2017-10-23T05:28:32.209Z,7.40
2017-10-23T05:30:58.561Z,11.38
2017-10-23T05:33:24.959Z,10.30
2017-10-23T05:35:51.303Z,8.70
2017-10-23T05:38:17.650Z,6.90
2017-10-23T05:40:44.009Z,5.72
2017-10-23T05:43:10.330Z,8.75
2017-10-23T05:45:36.696Z,11.00
2017-10-23T05:48:03.117Z,5.45
2017-10-23T05:50:29.533Z,6.62
2017-10-23T05:52:56.616Z,14.00
2017-10-23T05:55:23.000Z,6.43
2017-10-23T05:57:49.340Z,9.13
2017-10-23T06:00:15.724Z,3.72
2017-10-23T06:02:42.051Z,9.52
2017-10-23T06:05:09.084Z,12.75
2017-10-23T06:07:35.588Z,8.98
2017-10-23T06:10:01.928Z,7.00
2017-10-23T06:12:28.236Z,6.78
2017-10-23T06:14:55.283Z,8.60
2017-10-23T06:17:22.160Z,5.05
2017-10-23T06:19:48.273Z,4.43
2017-10-23T06:22:14.378Z,9.90
2017-10-23T06:24:40.651Z,10.70
2017-10-23T06:27:06.930Z,9.98
2017-10-23T06:29:33.349Z,10.10
2017-10-23T06:32:00.425Z,8.40
2017-10-23T06:34:27.526Z,5.47
2017-10-23T06:36:53.653Z,5.15
2017-10-23T06:39:19.953Z,5.72
2017-10-23T06:41:46.302Z,7.20
2017-10-23T06:44:13.340Z,10.43
2017-10-23T06:46:40.197Z,10.73
2017-10-23T06:49:07.309Z,8.13
2017-10-23T06:51:33.405Z,11.23
2017-10-23T06:53:59.550Z,10.32
2017-10-23T06:56:25.689Z,11.60
2017-10-23T06:58:52.022Z,8.85
2017-10-23T07:01:19.155Z,5.30
2017-10-23T07:03:46.511Z,20.30
2017-10-23T07:06:12.615Z,6.57
2017-10-23T07:08:38.717Z,6.00
2017-10-23T07:11:05.561Z,8.23
2017-10-23T07:13:32.595Z,8.98
2017-10-23T07:15:58.697Z,9.38
2017-10-23T07:18:24.905Z,5.55
2017-10-23T07:20:51.762Z,5.75
2017-10-23T07:23:17.880Z,4.80
2017-10-23T07:25:43.994Z,10.20
2017-10-23T07:28:10.169Z,10.57
2017-10-23T07:30:37.031Z,10.20
2017-10-23T07:33:03.928Z,8.10
2017-10-23T07:35:30.020Z,7.40
2017-10-23T07:37:56.104Z,7.15
2017-10-23T07:40:22.190Z,11.07
2017-10-23T07:42:49.034Z,4.85
2017-10-23T07:45:15.873Z,9.65
2017-10-23T07:47:41.973Z,8.77
2017-10-23T07:50:08.821Z,7.12
2017-10-23T07:52:35.189Z,6.62
2017-10-23T07:55:01.328Z,7.25
2017-10-23T07:57:27.550Z,6.50
2017-10-23T07:59:53.795Z,4.35
2017-10-23T08:02:19.955Z,8.27
2017-10-23T08:04:46.081Z,8.10
2017-10-23T08:07:12.188Z,8.27
2017-10-23T08:09:38.349Z,5.57
2017-10-23T08:12:04.711Z,7.30
2017-10-23T08:14:31.017Z,11.35
2017-10-23T08:16:57.381Z,10.13
2017-10-23T08:19:23.681Z,6.85
2017-10-23T08:21:50.001Z,8.13
2017-10-23T08:24:16.353Z,4.12
2017-10-23T08:26:43.406Z,4.47
2017-10-23T08:29:10.509Z,9.80
2017-10-23T08:31:36.813Z,9.90
2017-10-23T08:34:03.897Z,7.28
2017-10-23T08:36:30.937Z,5.93
2017-10-23T08:38:57.230Z,6.40
2017-10-23T08:41:23.525Z,8.70
2017-10-23T08:43:50.588Z,6.75
2017-10-23T08:46:17.491Z,5.80
2017-10-23T08:48:43.624Z,8.95
2017-10-23T08:51:09.765Z,4.62
2017-10-23T08:53:35.884Z,5.32
2017-10-23T08:56:02.197Z,7.55
2017-10-23T08:58:29.277Z,6.80
2017-10-23T09:00:57.907Z,8.13
2017-10-23T09:03:24.046Z,6.30
2017-10-23T09:05:50.189Z,7.47
2017-10-23T09:08:16.373Z,6.03
2017-10-23T09:10:42.513Z,8.77
2017-10-23T09:13:08.837Z,7.78
2017-10-23T09:15:35.149Z,8.98
2017-10-23T09:18:01.459Z,6.07
2017-10-23T09:20:27.773Z,11.95
2017-10-23T09:22:54.818Z,7.18
2017-10-23T09:25:21.178Z,6.65
2017-10-23T09:27:48.256Z,13.68
2017-10-23T09:30:14.613Z,8.55
2017-10-23T09:32:40.933Z,8.13
2017-10-23T09:35:07.989Z,9.45
2017-10-23T09:37:34.861Z,6.85
2017-10-23T09:40:01.070Z,7.75
2017-10-23T09:42:28.081Z,12.88
2017-10-23T09:44:54.192Z,7.10
2017-10-23T09:47:20.301Z,9.20
2017-10-23T09:49:47.309Z,7.35
2017-10-23T09:52:13.396Z,7.90
2017-10-23T09:54:39.482Z,7.45
2017-10-23T09:57:05.570Z,8.15
2017-10-23T09:59:32.396Z,8.95
2017-10-23T10:01:59.256Z,7.57
2017-10-23T10:04:25.474Z,9.77
2017-10-23T10:06:51.585Z,6.82
2017-10-23T10:09:17.683Z,7.47
2017-10-23T10:11:43.868Z,6.97
2017-10-23T10:14:10.897Z,7.57
2017-10-23T10:16:37.189Z,6.83
2017-10-23T10:19:03.572Z,5.97
2017-10-23T10:21:29.653Z,6.12
2017-10-23T10:23:55.934Z,8.02
2017-10-23T10:26:22.273Z,8.07
2017-10-23T10:28:48.533Z,8.60
2017-10-23T10:31:14.954Z,9.65
2017-10-23T10:33:41.378Z,8.02
2017-10-23T10:36:07.708Z,12.18
2017-10-23T10:38:34.719Z,9.63
2017-10-23T10:41:00.993Z,7.50
2017-10-23T10:43:27.418Z,8.98
2017-10-23T10:45:53.708Z,10.75
2017-10-23T10:48:19.988Z,6.90
2017-10-23T10:50:46.299Z,4.53
2017-10-23T10:53:12.632Z,8.50
2017-10-23T10:55:38.984Z,7.57
2017-10-23T10:58:05.348Z,5.95
2017-10-23T11:00:31.675Z,7.50
2017-10-23T11:02:58.797Z,7.53
2017-10-23T11:05:25.842Z,8.73
2017-10-23T11:07:52.152Z,6.25
2017-10-23T11:10:18.518Z,7.85
2017-10-23T11:12:44.861Z,8.10
2017-10-23T11:15:11.176Z,7.53
2017-10-23T11:17:37.505Z,6.82
2017-10-23T11:20:04.052Z,9.23
2017-10-23T11:22:30.368Z,10.37
2017-10-23T11:24:56.646Z,8.32
2017-10-23T11:27:22.950Z,8.93
2017-10-23T11:29:49.278Z,6.82
2017-10-23T11:32:15.588Z,7.63
2017-10-23T11:34:41.900Z,4.93
2017-10-23T11:37:08.199Z,7.73
2017-10-23T11:39:35.275Z,6.80
2017-10-23T11:42:01.604Z,5.63
2017-10-23T11:44:27.903Z,6.37
2017-10-23T11:46:54.204Z,7.23
2017-10-23T11:49:20.532Z,6.53
2017-10-23T11:51:47.581Z,6.47
2017-10-23T11:54:13.892Z,8.13
2017-10-23T11:56:40.190Z,8.00
2017-10-23T11:59:07.368Z,5.30
2017-10-23T12:01:33.702Z,5.27
2017-10-23T12:04:00.740Z,4.67
2017-10-23T12:06:27.978Z,6.23
2017-10-23T12:08:54.351Z,3.80
2017-10-23T12:11:21.510Z,5.10
2017-10-23T12:13:47.671Z,8.87
2017-10-23T12:16:14.006Z,4.43
2017-10-23T12:18:40.393Z,6.43
2017-10-23T12:21:06.530Z,6.67
2017-10-23T12:23:32.868Z,7.40
2017-10-23T12:25:59.933Z,5.50
2017-10-23T12:28:26.292Z,6.60
2017-10-23T12:30:52.622Z,6.20
2017-10-23T12:33:18.957Z,7.13
2017-10-23T12:35:45.264Z,7.33
2017-10-23T12:38:12.319Z,10.53
2017-10-23T12:40:39.375Z,7.83
2017-10-23T12:43:06.421Z,7.50
2017-10-23T12:45:33.406Z,8.77
2017-10-23T12:47:59.548Z,10.07
2017-10-23T12:50:25.649Z,7.83
2017-10-23T12:52:52.742Z,9.67
2017-10-23T12:55:19.040Z,9.83
2017-10-23T12:57:45.327Z,9.53
2017-10-23T13:00:12.359Z,9.77
2017-10-23T13:02:39.426Z,9.00
2017-10-23T13:05:06.284Z,9.00
2017-10-23T13:07:32.404Z,13.50
2017-10-23T13:09:59.277Z,7.00
2017-10-23T13:12:25.406Z,8.67
2017-10-23T13:14:52.262Z,7.77
2017-10-23T13:17:19.126Z,9.13
2017-10-23T13:19:45.252Z,8.67
2017-10-23T13:22:11.376Z,11.00
2017-10-23T13:24:37.505Z,8.63
2017-10-23T13:27:03.724Z,12.03
2017-10-23T13:29:29.865Z,13.70
2017-10-23T13:31:56.129Z,16.53
2017-10-23T13:34:23.221Z,7.17
2017-10-23T13:36:49.335Z,10.30
2017-10-23T13:39:16.405Z,10.37
2017-10-23T13:41:43.247Z,10.03
2017-10-23T13:44:10.105Z,12.17
2017-10-23T13:46:36.988Z,14.23
2017-10-23T13:49:03.124Z,9.70
2017-10-23T13:51:29.222Z,11.03
2017-10-23T13:53:56.140Z,9.67
2017-10-23T13:56:22.241Z,14.83
2017-10-23T13:58:48.332Z,8.93
2017-10-23T14:01:14.417Z,10.13
2017-10-23T14:03:41.423Z,10.10
2017-10-23T14:06:07.520Z,8.30
2017-10-23T14:08:33.763Z,8.97
2017-10-23T14:10:59.862Z,9.97
2017-10-23T14:13:25.949Z,12.77
2017-10-23T14:15:52.424Z,11.20
2017-10-23T14:18:18.520Z,9.30
2017-10-23T14:20:44.817Z,8.43
2017-10-23T14:23:11.109Z,13.23
2017-10-23T14:25:37.413Z,6.77
2017-10-23T14:28:03.835Z,11.67
2017-10-23T14:30:30.137Z,12.10
2017-10-23T14:32:56.433Z,12.83
2017-10-23T14:35:23.479Z,10.73
2017-10-23T14:37:49.820Z,11.13
2017-10-23T14:40:16.153Z,13.20
2017-10-23T14:42:42.465Z,11.80
2017-10-23T14:45:08.790Z,11.90
2017-10-23T14:47:35.108Z,9.87
2017-10-23T14:50:01.430Z,9.23
2017-10-23T14:52:27.886Z,10.37
2017-10-23T14:54:54.362Z,10.03
2017-10-23T14:57:20.706Z,7.97
2017-10-23T14:59:47.037Z,10.97
2017-10-23T15:02:14.143Z,11.00
2017-10-23T15:04:40.461Z,8.17
2017-10-23T15:07:06.800Z,13.07
2017-10-23T15:09:33.081Z,9.50
2017-10-23T15:11:59.381Z,9.40
2017-10-23T15:14:25.669Z,8.57
2017-10-23T15:16:52.028Z,12.87
2017-10-23T15:19:18.398Z,9.00
2017-10-23T15:21:44.779Z,10.77
2017-10-23T15:24:11.160Z,10.53
2017-10-23T15:26:37.448Z,10.77
2017-10-23T15:29:03.832Z,11.67
2017-10-23T15:31:30.239Z,13.70
2017-10-23T15:33:56.549Z,7.13
2017-10-23T15:36:22.846Z,13.03
2017-10-23T15:38:49.920Z,10.00
2017-10-23T15:41:16.232Z,9.63
2017-10-23T15:43:43.315Z,11.00
2017-10-23T15:46:09.668Z,8.30
2017-10-23T15:48:36.013Z,9.10
2017-10-23T15:51:02.317Z,10.87
2017-10-23T15:53:28.597Z,8.90
2017-10-23T15:55:54.877Z,15.33
2017-10-23T15:58:21.176Z,10.33
2017-10-23T16:00:47.491Z,8.40
2017-10-23T16:03:13.761Z,9.40
2017-10-23T16:05:40.029Z,11.73
2017-10-23T16:08:06.334Z,5.57
2017-10-23T16:10:32.661Z,11.33
2017-10-23T16:12:58.969Z,8.70
2017-10-23T16:15:25.261Z,7.10
2017-10-23T16:17:51.588Z,9.63
2017-10-23T16:20:17.897Z,7.43
2017-10-23T16:22:44.196Z,10.57
2017-10-23T16:25:10.473Z,10.07
2017-10-23T16:27:36.845Z,9.50
2017-10-23T16:30:03.216Z,13.57
2017-10-23T16:32:29.533Z,8.70
2017-10-23T16:34:55.898Z,8.00
2017-10-23T16:37:22.205Z,12.87
2017-10-23T16:39:48.533Z,8.13
2017-10-23T16:42:14.859Z,9.13
2017-10-23T16:44:41.276Z,7.93
2017-10-23T16:47:08.416Z,17.83
2017-10-23T16:49:34.765Z,11.33
2017-10-23T16:52:01.111Z,9.20
2017-10-23T16:54:28.281Z,6.60
2017-10-23T16:56:55.364Z,10.10
2017-10-23T16:59:21.754Z,9.57
2017-10-23T17:01:48.066Z,12.03
2017-10-23T17:04:14.388Z,9.90
2017-10-23T17:06:40.689Z,7.77
2017-10-23T17:09:06.989Z,8.40
2017-10-23T17:11:34.024Z,11.97
2017-10-23T17:14:01.205Z,10.27
2017-10-23T17:16:28.278Z,11.07
2017-10-23T17:18:54.587Z,8.43
2017-10-23T17:21:21.644Z,11.20
2017-10-23T17:23:47.985Z,18.70
2017-10-23T17:26:14.328Z,7.83
2017-10-23T17:28:40.638Z,8.60
2017-10-23T17:31:07.097Z,16.87
2017-10-23T17:33:33.392Z,8.70
2017-10-23T17:35:59.764Z,7.97
2017-10-23T17:38:26.116Z,6.37
2017-10-23T17:40:52.460Z,9.57
2017-10-23T17:43:28.351Z,15.63
2017-10-23T17:45:55.480Z,14.30
2017-10-23T17:48:21.596Z,9.83
2017-10-23T17:50:52.969Z,12.57
2017-10-23T17:53:29.709Z,11.53
2017-10-23T17:55:58.560Z,8.70
2017-10-23T17:58:36.317Z,9.00
2017-10-23T18:01:19.297Z,9.73
2017-10-23T18:03:45.442Z,14.53
2017-10-23T18:06:14.196Z,16.35
2017-10-23T18:08:54.004Z,11.57
2017-10-23T18:11:33.843Z,9.87
2017-10-23T18:14:04.856Z,13.63
2017-10-23T18:16:31.330Z,11.97
2017-10-23T18:18:57.681Z,10.27
2017-10-23T18:21:24.792Z,11.60
2017-10-23T18:23:52.016Z,10.75
2017-10-23T18:26:18.337Z,9.23
2017-10-23T18:28:44.654Z,15.13
2017-10-23T18:31:11.028Z,19.00
2017-10-23T18:33:37.557Z,21.97
2017-10-23T18:36:03.986Z,14.18
2017-10-23T18:38:30.346Z,10.77
2017-10-23T18:40:56.671Z,12.70
2017-10-23T18:43:22.981Z,11.50
2017-10-23T18:45:49.430Z,11.98
2017-10-23T18:48:15.818Z,13.45
2017-10-23T18:50:42.089Z,12.10
2017-10-23T18:53:08.370Z,18.33
2017-10-23T18:55:35.400Z,12.02
2017-10-23T18:58:02.448Z,11.40
2017-10-23T19:00:28.872Z,12.53
2017-10-23T19:02:55.967Z,9.67
2017-10-23T19:18:10.130Z,10.40
2017-10-23T19:23:14.038Z,13.05
2017-10-23T19:25:40.373Z,11.10
2017-10-23T19:28:06.696Z,9.43
2017-10-23T19:30:33.000Z,11.90
2017-10-23T19:32:59.427Z,11.83
2017-10-23T19:35:26.203Z,12.43
2017-10-23T19:37:52.492Z,16.00
2017-10-23T19:40:19.531Z,13.30
2017-10-23T19:42:45.872Z,18.67
2017-10-23T19:45:12.200Z,17.27
2017-10-23T19:47:38.488Z,16.50
2017-10-23T19:50:04.920Z,12.73
2017-10-23T19:52:32.250Z,13.68
2017-10-23T19:54:59.300Z,11.93
2017-10-23T19:57:25.641Z,13.30
2017-10-23T19:59:52.697Z,16.98
2017-10-23T20:02:33.315Z,14.52
2017-10-23T20:05:00.634Z,15.77
2017-10-23T20:07:26.755Z,14.82
2017-10-23T20:09:52.909Z,12.50
2017-10-23T20:12:19.039Z,16.42
2017-10-23T20:14:45.200Z,11.85
2017-10-23T20:17:11.309Z,10.93
2017-10-23T20:19:45.670Z,13.87
2017-10-23T20:22:18.172Z,11.82
2017-10-23T20:24:45.336Z,19.48
2017-10-23T20:27:11.588Z,15.88
2017-10-23T20:29:37.723Z,14.82
2017-10-23T20:32:03.890Z,16.95
2017-10-23T20:34:30.780Z,16.17
2017-10-23T20:36:57.710Z,21.00
2017-10-23T20:39:23.838Z,14.87
2017-10-23T20:41:53.095Z,14.20
2017-10-23T20:44:19.943Z,14.15
2017-10-23T20:46:46.115Z,13.20
2017-10-23T20:49:12.232Z,14.80
2017-10-23T20:51:38.349Z,13.70
2017-10-23T20:54:04.516Z,18.70
2017-10-23T20:56:30.627Z,18.83
2017-10-23T20:58:56.740Z,18.92
2017-10-23T21:01:23.613Z,16.80
2017-10-23T21:03:49.828Z,18.40
2017-10-23T21:06:15.915Z,15.75
2017-10-23T21:08:42.011Z,17.20
2017-10-23T21:11:08.109Z,17.20
2017-10-23T21:13:34.265Z,15.50
2017-10-23T21:16:00.413Z,21.05
2017-10-23T21:18:26.524Z,14.93
2017-10-23T21:20:52.641Z,16.55
2017-10-23T21:23:18.816Z,15.20
2017-10-23T21:25:44.908Z,18.08
2017-10-23T21:28:11.053Z,14.27
2017-10-23T21:30:37.918Z,17.08
2017-10-23T21:33:04.021Z,19.17
2017-10-23T21:35:30.140Z,17.80
2017-10-23T21:37:56.252Z,21.83
2017-10-23T21:40:22.358Z,19.73
2017-10-23T21:42:48.526Z,17.00
2017-10-23T21:45:16.524Z,19.65
2017-10-23T21:50:40.117Z,18.60
2017-10-23T21:53:06.254Z,18.52
2017-10-23T21:55:32.521Z,15.33
2017-10-23T21:58:25.334Z,17.27
2017-10-23T22:00:58.086Z,18.13
2017-10-23T22:03:24.440Z,19.45
2017-10-23T22:05:51.505Z,20.73
2017-10-23T22:08:18.581Z,18.07
2017-10-23T22:10:45.655Z,22.10
2017-10-23T22:13:12.754Z,18.92
2017-10-23T22:15:39.081Z,18.67
2017-10-23T22:18:05.396Z,17.27
2017-10-23T22:20:31.736Z,15.70
2017-10-23T22:22:58.057Z,13.55
2017-10-23T22:25:24.956Z,15.97
2017-10-23T22:27:51.368Z,20.85
2017-10-23T22:30:17.721Z,17.70
2017-10-23T22:32:44.012Z,19.80
2017-10-23T22:35:11.225Z,15.87
2017-10-23T22:37:37.571Z,16.37
2017-10-23T22:40:03.886Z,18.05
2017-10-23T22:42:31.036Z,15.70
2017-10-23T22:44:58.837Z,17.10
2017-10-23T22:47:25.143Z,14.23
2017-10-23T22:49:51.484Z,16.23
2017-10-23T22:52:17.790Z,12.60
2017-10-23T22:54:44.066Z,17.70
2017-10-23T22:57:10.681Z,14.50
2017-10-23T22:59:37.043Z,15.10
2017-10-23T23:02:03.388Z,18.00
2017-10-23T23:04:29.727Z,14.07
2017-10-23T23:06:56.088Z,16.02
2017-10-23T23:09:22.421Z,12.13
2017-10-23T23:11:48.805Z,14.97
2017-10-23T23:14:17.265Z,15.17
2017-10-23T23:16:43.409Z,12.60
2017-10-23T23:19:12.304Z,18.50
2017-10-23T23:21:38.732Z,13.50
2017-10-23T23:24:05.219Z,14.38
2017-10-23T23:26:31.645Z,19.00
2017-10-23T23:28:57.974Z,17.53
2017-10-23T23:31:24.382Z,15.95
2017-10-23T23:33:50.736Z,20.00
2017-10-23T23:39:13.784Z,21.77
2017-10-23T23:41:40.860Z,16.10
2017-10-23T23:44:07.719Z,17.40
2017-10-23T23:46:34.128Z,16.50
2017-10-23T23:49:00.512Z,15.57
2017-10-23T23:51:26.889Z,16.70
2017-10-23T23:53:53.769Z,18.60
2017-10-23T23:56:20.717Z,17.42
2017-10-23T23:58:46.820Z,17.30
